createdAt,value
2023-11-07T00:00:49.600Z,2.45
2023-11-07T00:02:54.560Z,2.70
2023-11-07T00:04:59.616Z,2.38
2023-11-07T00:07:04.884Z,2.55
2023-11-07T00:09:11.019Z,2.63
2023-11-07T00:11:13.253Z,2.67
2023-11-07T00:13:17.176Z,2.73
2023-11-07T00:15:20.198Z,2.88
2023-11-07T00:17:22.339Z,2.95
2023-11-07T00:19:25.562Z,3.05
2023-11-07T00:21:28.930Z,1.88
2023-11-07T00:23:32.081Z,2.80
2023-11-07T00:25:35.444Z,2.00
2023-11-07T00:27:38.762Z,2.58
2023-11-07T00:29:40.697Z,2.70
2023-11-07T00:31:42.367Z,3.25
2023-11-07T00:33:44.482Z,2.10
2023-11-07T00:35:46.331Z,2.42
2023-11-07T00:37:47.986Z,3.40
2023-11-07T00:39:49.617Z,2.57
2023-11-07T00:41:51.888Z,1.97
2023-11-07T00:43:53.735Z,2.08
2023-11-07T00:45:56.110Z,2.85
2023-11-07T00:50:00.621Z,1.85
2023-11-07T00:52:03.338Z,1.70
2023-11-07T00:54:05.722Z,2.35
2023-11-07T00:56:09.311Z,3.63
2023-11-07T00:58:10.946Z,2.60
2023-11-07T01:00:13.927Z,1.70
2023-11-07T01:02:15.549Z,1.77
2023-11-07T01:04:17.363Z,2.70
2023-11-07T01:06:19.234Z,1.77
2023-11-07T01:08:21.268Z,3.05
2023-11-07T01:10:22.877Z,2.22
2023-11-07T01:12:24.928Z,2.25
2023-11-07T01:14:26.534Z,1.95
2023-11-07T01:16:28.130Z,2.20
2023-11-07T01:18:29.998Z,2.92
2023-11-07T01:20:35.340Z,2.92
2023-11-07T01:22:37.662Z,2.35
2023-11-07T01:24:39.231Z,2.00
2023-11-07T01:26:40.873Z,2.37
2023-11-07T01:28:42.480Z,1.70
2023-11-07T01:30:44.705Z,2.30
2023-11-07T01:32:46.503Z,2.97
2023-11-07T01:34:48.332Z,2.50
2023-11-07T01:36:49.989Z,2.80
2023-11-07T01:38:54.018Z,2.83
2023-11-07T01:40:56.265Z,1.60
2023-11-07T01:42:57.941Z,1.57
2023-11-07T01:45:00.993Z,2.43
2023-11-07T01:47:03.963Z,1.50
2023-11-07T01:49:05.824Z,1.30
2023-11-07T01:51:07.912Z,1.73
2023-11-07T01:53:10.291Z,1.70
2023-11-07T01:55:17.891Z,1.40
2023-11-07T01:57:20.792Z,1.40
2023-11-07T01:59:23.450Z,1.27
2023-11-07T02:01:25.985Z,1.77
2023-11-07T02:05:30.456Z,1.67
2023-11-07T02:07:32.212Z,2.45
2023-11-07T02:09:33.786Z,2.73
2023-11-07T02:11:36.171Z,2.78
2023-11-07T02:13:38.083Z,2.03
2023-11-07T02:15:39.753Z,1.90
2023-11-07T02:17:42.067Z,2.10
2023-11-07T02:19:43.758Z,2.33
2023-11-07T02:21:46.841Z,1.85
2023-11-07T02:23:48.545Z,1.67
2023-11-07T02:25:53.050Z,2.47
2023-11-07T02:27:54.719Z,2.10
2023-11-07T02:29:56.432Z,2.43
2023-11-07T02:31:58.002Z,2.65
2023-11-07T02:33:59.692Z,2.03
2023-11-07T02:36:01.427Z,1.98
2023-11-07T02:38:04.048Z,2.17
2023-11-07T02:40:07.644Z,1.80
2023-11-07T02:42:10.478Z,1.63
2023-11-07T02:44:12.641Z,1.75
2023-11-07T02:46:14.294Z,2.55
2023-11-07T02:48:16.185Z,2.93
2023-11-07T02:50:18.834Z,2.25
2023-11-07T02:54:23.503Z,2.33
2023-11-07T02:56:25.622Z,2.45
2023-11-07T02:58:27.206Z,3.15
2023-11-07T03:00:28.788Z,2.25
2023-11-07T03:02:30.390Z,2.47
2023-11-07T03:04:32.020Z,3.17
2023-11-07T03:06:33.677Z,2.60
2023-11-07T03:08:37.539Z,2.92
2023-11-07T03:10:39.222Z,3.15
2023-11-07T03:12:41.071Z,3.03
2023-11-07T03:14:44.305Z,3.50
2023-11-07T03:16:46.690Z,3.15
2023-11-07T03:18:48.395Z,3.53
2023-11-07T03:20:50.081Z,3.00
2023-11-07T03:22:51.749Z,2.40
2023-11-07T03:24:53.346Z,2.60
2023-11-07T03:26:55.047Z,2.87
2023-11-07T03:28:56.713Z,2.78
2023-11-07T03:30:58.275Z,3.10
2023-11-07T03:33:00.335Z,2.33
2023-11-07T03:35:02.705Z,3.00
2023-11-07T03:37:04.543Z,3.58
2023-11-07T03:39:07.596Z,3.35
2023-11-07T03:41:10.079Z,2.88
2023-11-07T03:45:13.227Z,3.03
2023-11-07T03:47:15.439Z,2.63
2023-11-07T03:49:17.728Z,2.85
2023-11-07T03:51:19.359Z,3.15
2023-11-07T03:53:21.483Z,2.77
2023-11-07T03:55:23.243Z,2.15
2023-11-07T03:57:25.209Z,2.92
2023-11-07T03:59:27.030Z,3.10
2023-11-07T04:01:36.544Z,3.33
2023-11-07T04:03:38.267Z,2.97
2023-11-07T04:05:40.130Z,2.13
2023-11-07T04:07:41.809Z,2.63
2023-11-07T04:09:44.669Z,2.83
2023-11-07T04:11:49.318Z,2.47
2023-11-07T04:13:51.875Z,1.90
2023-11-07T04:17:55.033Z,2.80
2023-11-07T04:19:56.695Z,2.92
2023-11-07T04:21:58.574Z,1.97
2023-11-07T04:24:00.447Z,2.50
2023-11-07T04:26:04.235Z,2.85
2023-11-07T04:28:05.859Z,2.20
2023-11-07T04:30:07.959Z,2.93
2023-11-07T04:32:09.924Z,2.75
2023-11-07T04:34:11.754Z,2.47
2023-11-07T04:36:15.826Z,2.55
2023-11-07T04:38:17.900Z,1.92
2023-11-07T04:40:20.376Z,3.90
2023-11-07T04:44:23.395Z,2.63
2023-11-07T04:46:25.025Z,3.50
2023-11-07T04:48:26.773Z,3.00
2023-11-07T04:50:28.595Z,2.67
2023-11-07T04:52:30.233Z,2.78
2023-11-07T04:54:31.909Z,2.30
2023-11-07T04:56:34.251Z,2.65
2023-11-07T04:58:56.187Z,2.10
2023-11-07T05:00:57.828Z,2.83
2023-11-07T05:02:59.707Z,2.27
2023-11-07T05:05:01.434Z,3.33
2023-11-07T05:07:03.058Z,3.28
2023-11-07T05:09:09.283Z,2.90
2023-11-07T05:11:11.831Z,2.65
2023-11-07T05:13:15.515Z,1.92
2023-11-07T05:15:17.270Z,2.63
2023-11-07T05:17:18.942Z,2.28
2023-11-07T05:19:23.112Z,2.00
2023-11-07T05:21:24.907Z,3.70
2023-11-07T05:23:26.608Z,2.90
2023-11-07T05:25:28.251Z,3.33
2023-11-07T05:27:29.866Z,2.87
2023-11-07T05:29:31.495Z,2.37
2023-11-07T05:31:33.065Z,2.80
2023-11-07T05:33:35.970Z,2.93
2023-11-07T05:35:37.893Z,3.17
2023-11-07T05:37:42.791Z,2.40
2023-11-07T05:39:45.658Z,3.22
2023-11-07T05:41:47.309Z,2.53
2023-11-07T05:43:48.917Z,2.42
2023-11-07T05:45:50.522Z,3.23
2023-11-07T05:47:52.469Z,2.70
2023-11-07T05:49:54.185Z,2.72
2023-11-07T05:51:55.856Z,2.97
2023-11-07T05:53:57.536Z,3.00
2023-11-07T05:55:59.233Z,2.75
2023-11-07T05:58:00.856Z,2.88
2023-11-07T06:00:02.629Z,3.07
2023-11-07T06:02:04.710Z,1.60
2023-11-07T06:04:07.760Z,3.60
2023-11-07T06:06:09.747Z,3.47
2023-11-07T06:08:11.705Z,3.05
2023-11-07T06:10:14.426Z,2.85
2023-11-07T06:12:16.081Z,2.20
2023-11-07T06:14:17.777Z,2.07
2023-11-07T06:16:20.039Z,3.17
2023-11-07T06:18:23.465Z,3.13
2023-11-07T06:20:25.446Z,2.95
2023-11-07T06:22:27.773Z,3.67
2023-11-07T06:24:29.581Z,2.65
2023-11-07T06:26:31.289Z,2.70
2023-11-07T06:28:32.960Z,3.55
2023-11-07T06:30:35.988Z,2.80
2023-11-07T06:32:38.524Z,2.28
2023-11-07T06:34:42.131Z,2.15
2023-11-07T06:36:44.724Z,2.53
2023-11-07T06:38:46.699Z,3.30
2023-11-07T06:40:48.340Z,4.47
2023-11-07T06:42:49.997Z,3.33
2023-11-07T06:44:52.852Z,1.67
2023-11-07T06:46:54.852Z,2.88
2023-11-07T06:48:59.466Z,2.78
2023-11-07T06:51:03.750Z,2.42
2023-11-07T06:53:05.438Z,2.38
2023-11-07T06:55:07.559Z,2.95
2023-11-07T06:57:10.793Z,3.92
2023-11-07T06:59:12.970Z,5.22
2023-11-07T07:01:15.695Z,10.05
2023-11-07T07:03:17.735Z,9.27
2023-11-07T07:05:19.502Z,9.32
2023-11-07T07:07:21.567Z,6.50
2023-11-07T07:09:23.227Z,3.28
2023-11-07T07:11:25.952Z,2.43
2023-11-07T07:13:27.664Z,2.55
2023-11-07T07:15:29.333Z,2.30
2023-11-07T07:17:31.210Z,2.60
2023-11-07T07:19:32.893Z,2.47
2023-11-07T07:21:38.251Z,3.65
2023-11-07T07:23:43.553Z,3.78
2023-11-07T07:25:47.185Z,2.67
2023-11-07T07:27:49.370Z,2.60
2023-11-07T07:31:53.173Z,3.40
2023-11-07T07:33:56.085Z,2.25
2023-11-07T07:36:04.107Z,2.92
2023-11-07T07:38:05.906Z,2.35
2023-11-07T07:40:10.018Z,2.55
2023-11-07T07:42:12.010Z,3.80
2023-11-07T07:44:13.867Z,3.45
2023-11-07T07:46:16.473Z,3.28
2023-11-07T07:48:18.651Z,2.50
2023-11-07T07:50:20.616Z,2.88
2023-11-07T07:52:24.132Z,3.30
2023-11-07T07:54:43.761Z,3.72
2023-11-07T07:56:49.353Z,3.25
2023-11-07T07:58:50.998Z,2.67
2023-11-07T08:00:53.779Z,3.67
2023-11-07T08:02:55.720Z,3.05
2023-11-07T08:04:58.032Z,2.90
2023-11-07T08:06:59.759Z,3.78
2023-11-07T08:09:01.370Z,2.73
2023-11-07T08:11:03.153Z,2.30
2023-11-07T08:13:08.671Z,2.58
2023-11-07T08:15:11.493Z,2.28
2023-11-07T08:17:13.192Z,3.65
2023-11-07T08:19:15.072Z,3.25
2023-11-07T08:21:16.775Z,2.53
2023-11-07T08:23:18.573Z,1.63
2023-11-07T08:25:20.234Z,2.42
2023-11-07T08:27:23.280Z,3.10
2023-11-07T08:29:24.927Z,2.10
2023-11-07T08:31:26.481Z,2.83
2023-11-07T08:33:28.583Z,3.15
2023-11-07T08:35:30.314Z,2.80
2023-11-07T08:37:32.604Z,1.50
2023-11-07T08:39:35.243Z,1.85
2023-11-07T08:41:37.915Z,1.63
2023-11-07T08:43:39.605Z,3.55
2023-11-07T08:45:41.393Z,3.53
2023-11-07T08:47:46.213Z,2.45
2023-11-07T08:49:47.924Z,2.33
2023-11-07T08:51:52.931Z,2.53
2023-11-07T08:53:56.596Z,1.45
2023-11-07T08:55:58.338Z,1.85
2023-11-07T08:58:00.042Z,1.83
2023-11-07T09:00:02.062Z,1.55
2023-11-07T09:02:03.753Z,1.40
2023-11-07T09:04:10.792Z,1.97
2023-11-07T09:06:12.553Z,1.70
2023-11-07T09:08:14.189Z,1.23
2023-11-07T09:10:15.917Z,1.40
2023-11-07T09:12:17.598Z,1.40
2023-11-07T09:14:20.210Z,1.77
2023-11-07T09:16:21.929Z,1.67
2023-11-07T09:18:23.747Z,2.40
2023-11-07T09:20:25.410Z,1.60
2023-11-07T09:22:27.028Z,1.23
2023-11-07T09:24:28.638Z,1.40
2023-11-07T09:26:30.257Z,1.10
2023-11-07T09:28:31.826Z,1.38
2023-11-07T09:30:34.459Z,1.37
2023-11-07T09:32:36.936Z,1.00
2023-11-07T09:36:43.050Z,1.10
2023-11-07T09:38:52.050Z,1.00
2023-11-07T09:40:55.159Z,1.35
2023-11-07T09:42:57.027Z,1.27
2023-11-07T09:44:59.280Z,1.17
2023-11-07T09:47:00.986Z,1.60
2023-11-07T09:49:02.788Z,2.05
2023-11-07T09:51:05.803Z,1.20
2023-11-07T09:53:08.875Z,1.25
2023-11-07T09:55:12.276Z,1.17
2023-11-07T09:57:14.951Z,1.00
2023-11-07T10:01:20.347Z,1.02
2023-11-07T10:03:23.341Z,1.10
2023-11-07T10:07:28.472Z,1.05
2023-11-07T10:09:33.492Z,1.40
2023-11-07T10:11:44.442Z,1.20
2023-11-07T10:14:02.176Z,1.40
2023-11-07T10:18:14.795Z,1.27
2023-11-07T10:20:16.494Z,1.60
2023-11-07T10:22:18.309Z,1.20
2023-11-07T10:24:20.315Z,1.75
2023-11-07T10:26:22.018Z,1.73
2023-11-07T10:28:23.966Z,2.50
2023-11-07T10:30:46.598Z,3.72
2023-11-07T10:32:48.963Z,4.38
2023-11-07T10:36:52.270Z,1.92
2023-11-07T10:38:54.315Z,2.33
2023-11-07T10:40:55.957Z,1.63
2023-11-07T10:42:58.118Z,1.48
2023-11-07T10:45:06.730Z,1.42
2023-11-07T10:47:08.559Z,1.48
2023-11-07T10:49:12.495Z,1.23
2023-11-07T10:51:14.947Z,1.00
2023-11-07T10:53:17.608Z,1.23
2023-11-07T10:55:19.299Z,1.42
2023-11-07T10:57:32.680Z,1.17
2023-11-07T10:59:36.390Z,1.40
2023-11-07T11:01:41.473Z,3.38
2023-11-07T11:03:45.975Z,3.33
2023-11-07T11:05:48.969Z,1.30
2023-11-07T11:07:52.982Z,2.00
2023-11-07T11:09:56.514Z,1.25
2023-11-07T11:12:00.018Z,1.10
2023-11-07T11:14:05.134Z,1.60
2023-11-07T11:16:09.046Z,1.85
2023-11-07T11:18:19.719Z,3.58
2023-11-07T11:20:38.411Z,1.20
2023-11-07T11:22:47.529Z,1.02
2023-11-07T11:24:55.218Z,1.20
2023-11-07T11:27:04.597Z,1.10
2023-11-07T11:29:25.871Z,1.10
2023-11-07T11:31:28.841Z,1.20
2023-11-07T11:33:30.579Z,1.08
2023-11-07T11:35:32.541Z,1.10
2023-11-07T11:37:52.822Z,0.90
2023-11-07T11:39:55.093Z,0.90
2023-11-07T11:41:58.157Z,1.00
2023-11-07T11:44:13.996Z,0.90
2023-11-07T11:46:15.649Z,1.30
2023-11-07T11:48:19.453Z,1.23
2023-11-07T11:50:21.362Z,0.98
2023-11-07T11:52:35.910Z,1.30
2023-11-07T11:54:39.355Z,1.00
2023-11-07T11:56:53.112Z,1.00
2023-11-07T11:59:16.611Z,1.10
2023-11-07T12:01:21.773Z,1.25
2023-11-07T12:03:25.432Z,1.30
2023-11-07T12:05:28.311Z,1.00
2023-11-07T12:07:30.158Z,0.90
2023-11-07T12:09:31.933Z,1.00
2023-11-07T12:11:45.813Z,1.10
2023-11-07T12:13:48.467Z,1.20
2023-11-07T12:15:50.409Z,1.30
2023-11-07T12:17:53.054Z,1.10
2023-11-07T12:20:04.362Z,1.35
2023-11-07T12:22:09.142Z,1.30
2023-11-07T12:24:11.061Z,1.58
2023-11-07T12:26:13.336Z,1.30
2023-11-07T12:28:15.043Z,1.25
2023-11-07T12:30:18.028Z,1.00
2023-11-07T12:32:20.038Z,1.35
2023-11-07T12:34:34.099Z,1.10
2023-11-07T12:36:37.029Z,1.00
2023-11-07T12:38:39.037Z,1.10
2023-11-07T12:40:41.632Z,0.90
2023-11-07T12:46:49.656Z,1.00
2023-11-07T12:48:53.638Z,1.20
2023-11-07T12:50:55.411Z,1.10
2023-11-07T12:53:01.005Z,1.02
2023-11-07T12:55:16.136Z,1.10
2023-11-07T12:57:18.033Z,0.90
2023-11-07T12:59:19.718Z,1.15
2023-11-07T13:01:24.906Z,0.90
2023-11-07T13:03:30.243Z,0.80
2023-11-07T13:05:32.114Z,0.80
2023-11-07T13:07:34.178Z,0.80
2023-11-07T13:09:35.796Z,0.80
2023-11-07T13:11:37.414Z,0.80
2023-11-07T13:13:39.423Z,1.00
2023-11-07T13:15:41.149Z,0.80
2023-11-07T13:17:43.562Z,0.80
2023-11-07T13:19:45.384Z,0.80
2023-11-07T13:21:47.047Z,0.80
2023-11-07T13:23:48.894Z,0.80
2023-11-07T13:25:50.592Z,0.90
2023-11-07T13:27:54.454Z,0.90
2023-11-07T13:29:56.212Z,0.80
2023-11-07T13:31:57.821Z,1.20
2023-11-07T13:33:59.679Z,1.38
2023-11-07T13:36:01.468Z,0.80
2023-11-07T13:38:03.339Z,1.38
2023-11-07T13:40:10.810Z,1.63
2023-11-07T13:42:12.750Z,0.90
2023-11-07T13:44:14.438Z,0.85
2023-11-07T13:46:20.066Z,1.00
2023-11-07T13:48:22.375Z,1.00
2023-11-07T13:50:24.919Z,1.42
2023-11-07T13:52:26.576Z,0.98
2023-11-07T13:54:28.798Z,0.90
2023-11-07T13:56:30.648Z,1.15
2023-11-07T13:58:32.232Z,1.25
2023-11-07T14:00:34.036Z,1.10
2023-11-07T14:02:35.724Z,1.20
2023-11-07T14:04:37.850Z,1.00
2023-11-07T14:06:39.632Z,1.10
2023-11-07T14:08:42.237Z,1.25
2023-11-07T14:10:45.684Z,1.00
2023-11-07T14:12:47.654Z,1.00
2023-11-07T14:14:49.301Z,1.10
2023-11-07T14:16:50.928Z,1.10
2023-11-07T14:18:53.218Z,0.90
2023-11-07T14:22:59.845Z,1.38
2023-11-07T14:25:02.199Z,0.90
2023-11-07T14:29:26.531Z,1.00
2023-11-07T14:31:31.286Z,0.90
2023-11-07T14:33:33.363Z,0.95
2023-11-07T14:35:35.701Z,1.10
2023-11-07T14:37:37.937Z,0.90
2023-11-07T14:39:39.633Z,0.90
2023-11-07T14:41:41.991Z,1.00
2023-11-07T14:45:45.381Z,2.65
2023-11-07T14:47:48.513Z,1.20
2023-11-07T14:50:10.203Z,1.20
2023-11-07T14:52:30.206Z,1.10
2023-11-07T14:54:32.194Z,1.00
2023-11-07T14:56:33.824Z,1.35
2023-11-07T14:58:36.845Z,1.65
2023-11-07T15:00:42.263Z,1.20
2023-11-07T15:02:44.389Z,1.52
2023-11-07T15:04:46.774Z,1.00
2023-11-07T15:08:50.220Z,1.10
2023-11-07T15:10:51.837Z,1.33
2023-11-07T15:12:53.739Z,1.35
2023-11-07T15:14:55.480Z,1.75
2023-11-07T15:16:59.130Z,1.25
2023-11-07T15:19:00.787Z,1.17
2023-11-07T15:21:02.500Z,1.55
2023-11-07T15:23:04.316Z,1.23
2023-11-07T15:25:10.845Z,1.00
2023-11-07T15:27:12.529Z,1.10
2023-11-07T15:29:14.151Z,1.02
2023-11-07T15:31:15.720Z,1.40
2023-11-07T15:33:17.571Z,1.10
2023-11-07T15:35:19.864Z,1.27
2023-11-07T15:37:21.552Z,1.42
2023-11-07T15:39:25.693Z,1.30
2023-11-07T15:41:27.374Z,1.63
2023-11-07T15:43:28.999Z,1.10
2023-11-07T15:45:32.557Z,1.45
2023-11-07T15:47:34.560Z,1.08
2023-11-07T15:49:36.363Z,3.58
2023-11-07T15:51:39.119Z,1.35
2023-11-07T15:53:41.442Z,1.75
2023-11-07T15:55:43.469Z,4.22
2023-11-07T15:57:47.269Z,3.80
2023-11-07T15:59:48.868Z,2.92
2023-11-07T16:01:51.560Z,4.57
2023-11-07T16:03:54.233Z,2.85
2023-11-07T16:05:57.157Z,2.75
2023-11-07T16:07:59.297Z,1.65
2023-11-07T16:10:00.973Z,2.17
2023-11-07T16:12:02.631Z,1.40
2023-11-07T16:14:04.379Z,1.65
2023-11-07T16:16:10.153Z,1.90
2023-11-07T16:18:12.359Z,1.23
2023-11-07T16:20:15.487Z,1.77
2023-11-07T16:22:18.281Z,2.03
2023-11-07T16:24:20.264Z,1.52
2023-11-07T16:26:22.337Z,2.60
2023-11-07T16:28:24.440Z,4.63
2023-11-07T16:30:26.220Z,6.15
2023-11-07T16:32:28.177Z,4.60
2023-11-07T16:34:31.195Z,5.38
2023-11-07T16:36:32.855Z,4.40
2023-11-07T16:38:34.515Z,7.70
2023-11-07T16:40:36.240Z,7.88
2023-11-07T16:42:38.436Z,8.68
2023-11-07T16:44:43.509Z,7.00
2023-11-07T16:46:45.143Z,8.20
2023-11-07T16:48:46.988Z,26.07
2023-11-07T16:50:48.813Z,21.10
2023-11-07T16:52:50.977Z,16.42
2023-11-07T16:54:54.176Z,13.52
2023-11-07T16:56:56.279Z,15.52
2023-11-07T16:58:57.930Z,19.15
2023-11-07T17:01:00.390Z,19.65
2023-11-07T17:05:06.540Z,17.70
2023-11-07T17:07:08.276Z,18.60
2023-11-07T17:09:10.644Z,20.13
2023-11-07T17:11:14.582Z,19.85
2023-11-07T17:13:23.577Z,17.20
2023-11-07T17:15:26.981Z,13.77
2023-11-07T17:17:28.702Z,11.50
2023-11-07T17:19:30.769Z,7.85
2023-11-07T17:21:32.371Z,8.50
2023-11-07T17:23:33.978Z,8.07
2023-11-07T17:25:37.978Z,10.03
2023-11-07T17:27:39.798Z,7.65
2023-11-07T17:29:41.604Z,5.00
2023-11-07T17:31:43.990Z,4.18
2023-11-07T17:33:45.687Z,2.97
2023-11-07T17:35:47.462Z,2.72
2023-11-07T17:37:50.744Z,4.83
2023-11-07T17:39:52.748Z,4.60
2023-11-07T17:41:54.900Z,4.18
2023-11-07T17:43:56.603Z,4.45
2023-11-07T17:45:58.275Z,6.35
2023-11-07T17:48:00.129Z,6.72
2023-11-07T17:50:02.921Z,4.50
2023-11-07T17:52:04.652Z,8.88
2023-11-07T17:54:09.255Z,6.78
2023-11-07T17:56:11.095Z,8.00
2023-11-07T17:58:13.215Z,6.17
2023-11-07T18:00:16.613Z,7.18
2023-11-07T18:02:22.158Z,3.53
2023-11-07T18:04:26.120Z,4.28
2023-11-07T18:06:28.865Z,7.35
2023-11-07T18:08:30.703Z,3.75
2023-11-07T18:10:32.391Z,7.72
2023-11-07T18:12:34.085Z,6.53
2023-11-07T18:14:35.886Z,5.20
2023-11-07T18:16:37.609Z,5.50
2023-11-07T18:18:57.080Z,8.38
2023-11-07T18:21:01.890Z,7.07
2023-11-07T18:23:03.661Z,3.83
2023-11-07T18:25:07.267Z,7.72
2023-11-07T18:27:08.946Z,5.65
2023-11-07T18:29:10.932Z,6.60
2023-11-07T18:31:12.708Z,8.90
2023-11-07T18:33:15.225Z,7.35
2023-11-07T18:37:19.402Z,3.92
2023-11-07T18:39:21.122Z,3.60
2023-11-07T18:41:23.836Z,3.25
2023-11-07T18:43:27.673Z,2.80
2023-11-07T18:45:29.348Z,6.28
2023-11-07T18:47:31.758Z,5.40
2023-11-07T18:49:33.593Z,8.30
2023-11-07T18:51:35.326Z,6.85
2023-11-07T18:53:45.216Z,6.10
2023-11-07T18:55:47.900Z,5.55
2023-11-07T18:57:49.794Z,5.97
2023-11-07T18:59:52.241Z,6.18
2023-11-07T19:01:54.336Z,5.18
2023-11-07T19:03:57.501Z,4.38
2023-11-07T19:05:59.272Z,4.95
2023-11-07T19:08:00.912Z,5.37
2023-11-07T19:10:03.870Z,6.20
2023-11-07T19:12:06.081Z,13.63
2023-11-07T19:14:08.247Z,10.95
2023-11-07T19:16:11.081Z,9.30
2023-11-07T19:18:15.563Z,7.90
2023-11-07T19:20:18.516Z,8.50
2023-11-07T19:22:20.347Z,10.15
2023-11-07T19:24:22.340Z,9.15
2023-11-07T19:26:29.988Z,14.90
2023-11-07T19:28:32.454Z,11.25
2023-11-07T19:30:34.106Z,13.02
2023-11-07T19:32:45.233Z,13.27
2023-11-07T19:34:46.935Z,13.52
2023-11-07T19:36:49.736Z,11.75
2023-11-07T19:38:51.522Z,12.88
2023-11-07T19:40:55.509Z,12.15
2023-11-07T19:42:57.279Z,13.40
2023-11-07T19:44:58.962Z,13.20
2023-11-07T19:47:00.740Z,11.97
2023-11-07T19:49:02.540Z,9.23
2023-11-07T19:51:04.752Z,12.05
2023-11-07T19:53:11.619Z,9.55
2023-11-07T19:55:13.948Z,7.57
2023-11-07T19:57:16.148Z,8.93
2023-11-07T19:59:18.483Z,10.50
2023-11-07T20:01:20.521Z,7.80
2023-11-07T20:03:22.804Z,6.55
2023-11-07T20:05:27.420Z,7.35
2023-11-07T20:07:29.108Z,9.20
2023-11-07T20:09:30.917Z,11.03
2023-11-07T20:11:33.607Z,10.90
2023-11-07T20:15:36.861Z,9.82
2023-11-07T20:17:39.018Z,9.52
2023-11-07T20:19:40.907Z,8.95
2023-11-07T20:21:42.539Z,4.35
2023-11-07T20:23:45.391Z,5.87
2023-11-07T20:25:47.077Z,4.90
2023-11-07T20:27:48.772Z,9.47
2023-11-07T20:29:50.466Z,4.93
2023-11-07T20:31:52.055Z,3.77
2023-11-07T20:33:54.099Z,11.00
2023-11-07T20:35:55.909Z,11.48
2023-11-07T20:37:57.475Z,17.33
2023-11-07T20:39:59.091Z,14.25
2023-11-07T20:42:03.152Z,14.17
2023-11-07T20:44:04.842Z,11.80
2023-11-07T20:46:15.647Z,16.33
2023-11-07T20:48:24.299Z,11.85
2023-11-07T20:50:26.075Z,15.18
2023-11-07T20:52:28.857Z,11.93
2023-11-07T20:54:30.446Z,5.00
2023-11-07T20:56:33.897Z,7.53
2023-11-07T20:58:35.806Z,5.60
2023-11-07T21:00:38.392Z,8.50
2023-11-07T21:04:41.729Z,15.85
2023-11-07T21:06:44.754Z,9.93
2023-11-07T21:08:47.531Z,15.52
2023-11-07T21:10:49.424Z,12.27
2023-11-07T21:12:51.635Z,10.15
2023-11-07T21:14:53.379Z,9.38
2023-11-07T21:16:55.224Z,10.93
2023-11-07T21:18:58.791Z,10.05
2023-11-07T21:21:00.553Z,8.15
2023-11-07T21:23:02.206Z,9.27
2023-11-07T21:25:03.956Z,6.87
2023-11-07T21:27:05.634Z,6.57
2023-11-07T21:29:08.294Z,5.07
2023-11-07T21:31:10.018Z,4.47
2023-11-07T21:33:12.654Z,6.25
2023-11-07T21:37:16.830Z,9.23
2023-11-07T21:39:21.616Z,8.77
2023-11-07T21:41:23.525Z,9.15
2023-11-07T21:43:25.441Z,9.55
2023-11-07T21:45:27.233Z,7.45
2023-11-07T21:47:28.892Z,13.82
2023-11-07T21:49:31.130Z,12.10
2023-11-07T21:51:33.163Z,13.68
2023-11-07T21:53:34.809Z,12.07
2023-11-07T21:55:39.206Z,13.07
2023-11-07T21:57:41.735Z,12.10
2023-11-07T22:01:44.963Z,9.95
2023-11-07T22:03:47.240Z,9.05
2023-11-07T22:05:49.002Z,8.52
2023-11-07T22:07:50.635Z,9.67
2023-11-07T22:09:52.252Z,10.10
2023-11-07T22:11:53.879Z,11.23
2023-11-07T22:13:55.471Z,8.43
2023-11-07T22:15:57.069Z,12.45
2023-11-07T22:17:58.773Z,12.37
2023-11-07T22:20:00.956Z,14.52
2023-11-07T22:22:06.433Z,10.73
2023-11-07T22:24:09.357Z,11.45
2023-11-07T22:26:10.962Z,10.75
2023-11-07T22:28:12.738Z,9.15
2023-11-07T22:30:14.589Z,6.30
2023-11-07T22:32:16.853Z,9.10
2023-11-07T22:34:18.650Z,9.98
2023-11-07T22:36:20.476Z,8.50
2023-11-07T22:38:22.152Z,15.20
2023-11-07T22:40:23.876Z,13.07
2023-11-07T22:42:25.714Z,10.95
2023-11-07T22:44:28.619Z,11.50
2023-11-07T22:46:30.606Z,14.18
2023-11-07T22:48:32.472Z,16.00
2023-11-07T22:50:34.191Z,14.52
2023-11-07T22:52:35.981Z,15.93
2023-11-07T22:54:37.725Z,13.25
2023-11-07T22:56:41.531Z,13.75
2023-11-07T22:58:43.184Z,12.70
2023-11-07T23:00:49.594Z,15.63
2023-11-07T23:02:51.311Z,13.05
2023-11-07T23:04:53.264Z,14.45
2023-11-07T23:06:57.017Z,13.38
2023-11-07T23:08:58.736Z,16.08
2023-11-07T23:11:00.490Z,15.67
2023-11-07T23:13:02.260Z,12.07
2023-11-07T23:15:04.170Z,15.10
2023-11-07T23:17:07.453Z,12.77
2023-11-07T23:19:09.095Z,12.20
2023-11-07T23:21:10.756Z,9.40
2023-11-07T23:23:12.463Z,10.97
2023-11-07T23:25:14.349Z,10.57
2023-11-07T23:27:16.191Z,12.80
2023-11-07T23:29:18.438Z,14.82
2023-11-07T23:31:20.213Z,16.35
2023-11-07T23:33:23.789Z,15.13
2023-11-07T23:35:25.466Z,18.33
2023-11-07T23:37:27.425Z,15.93
2023-11-07T23:39:30.332Z,16.00
2023-11-07T23:41:32.055Z,15.65
2023-11-07T23:43:33.776Z,16.40
2023-11-07T23:45:35.553Z,13.17
2023-11-07T23:47:40.290Z,11.98
2023-11-07T23:49:41.986Z,11.80
2023-11-07T23:51:43.735Z,11.17
2023-11-07T23:53:45.438Z,11.35
2023-11-07T23:55:47.214Z,11.60
2023-11-07T23:57:48.962Z,11.18
2023-11-07T23:59:51.214Z,11.00
